Weather at RAF Lakenheath

Public forecast

Using degrees Celsius for public forecast. Weather courtesy of forecast.io.

Current aviation weather report (METAR) for RAF Lakenheath

Retrieved 2020/12/04 03:41 UTC (0 seconds ago):

EGUL 040341Z AUTO 01006KT 8000 RA OVC005 04/ A2868 RMK AO2 SLP716

Aviation forecast (TAF) for RAF Lakenheath

Forecast is more than 6 hours old.

Retrieved 2020/12/03 21:07 UTC (6 hours ago):

TAF EGUL 032100Z 0321/0503 27009KT 9999 OVC020 QNH2869INS TEMPO 0321/0403 8000 -RA BKN015 BECMG 0403/0404 32009KT 6000 -RA BR OVC005 650208 QNH2865INS BECMG 0406/0407 25010G20KT 3200 -RASN OVC005 650108 QNH2865INS BECMG 0414/0415 19010G20KT 9999 NSW BKN010 BKN020 QNH2880INS TX05/0321Z TN02/0407Z